CheckWX is a tool to help pilots better visualize weather data.  It is not intended as a substitute for an official pre-flight weather briefing.

04:14:07 UTC

KDLN METAR
Dillon Airport
Dillon, Montana, USA
Current

21 mins ago

KDLN 180353Z AUTO 06012KT 10SM OVC028 M17/M20 A3004 RMK AO2 SLP276 T11671200
Observed
Feb-18 @ 03:53 UTC
Wind
  • 060° at 12 KTS
Visibility
10 SM
Flight Rules
MVFR
Cloud Levels
  • Overcast at 2,800' AGL
Temperature
-17°C / 1°F
Dewpoint
-20°C / -4°F
Humidity
78%
Altimeter
30.04" Hg
Pressure
1027.6 hPa
Previous

1 hour ago

KDLN 180253Z AUTO 05011KT 10SM OVC026 M16/M19 A3004 RMK AO2 SLP272 T11611194 51016
Observed
Feb-18 @ 02:53 UTC
Wind
  • 050° at 11 KTS
Visibility
10 SM
Flight Rules
MVFR
Cloud Levels
  • Overcast at 2,600' AGL
Temperature
-16°C / 3°F
Dewpoint
-19°C / -2°F
Humidity
78%
Altimeter
30.04" Hg
Pressure
1027.2 hPa
Previous

2 hours ago

KDLN 180233Z AUTO 06011KT 10SM OVC029 M16/M19 A3003 RMK AO2 T11611194
Observed
Feb-18 @ 02:33 UTC
Wind
  • 060° at 11 KTS
Visibility
10 SM
Flight Rules
MVFR
Cloud Levels
  • Overcast at 2,900' AGL
Temperature
-16°C / 3°F
Dewpoint
-19°C / -2°F
Humidity
78%
Altimeter
30.03" Hg
Pressure
1016.92 hPa